Time;durP1;ratioP1;P1;durP2;ratioP2;P2;SDS_P1;SDS_P2;PMS_P1;PMS_P2;Temp;Humidity;BMP_temperature;BMP_pressure;BME280_temperature;BME280_humidity;BME280_pressure;Samples;Min_cycle;Max_cycle;Signal;HPM_P1;HPM_P2
2023/05/12 00:01:58;;;;;;;50.28;25.08;;;11.90;95.90;;;;;;5078675;28;20492;-44
2023/05/12 00:04:25;;;;;;;43.95;26.27;;;11.90;95.90;;;;;;5090029;28;20334;-45
2023/05/12 00:06:50;;;;;;;37.60;24.05;;;11.90;96.00;;;;;;5089936;28;20032;-45
2023/05/12 00:09:17;;;;;;;45.47;29.08;;;11.90;96.00;;;;;;5074598;28;20085;-45
2023/05/12 00:11:43;;;;;;;43.17;25.10;;;11.90;95.90;;;;;;5054369;28;20083;-46
2023/05/12 00:14:12;;;;;;;48.47;30.45;;;11.90;96.00;;;;;;5051754;28;20442;-45
2023/05/12 00:16:40;;;;;;;43.65;28.30;;;11.90;96.00;;;;;;5070364;28;20090;-44
2023/05/12 00:19:06;;;;;;;50.45;30.55;;;11.90;96.00;;;;;;5052177;28;20029;-45
2023/05/12 00:21:33;;;;;;;52.90;32.65;;;11.90;95.90;;;;;;5061700;28;20824;-46
2023/05/12 00:24:00;;;;;;;55.13;32.33;;;11.90;95.90;;;;;;5071493;28;20029;-45
2023/05/12 00:26:27;;;;;;;49.20;32.75;;;11.90;95.90;;;;;;5082625;28;20041;-44
2023/05/12 00:28:54;;;;;;;51.47;33.65;;;11.80;95.90;;;;;;5095752;28;20058;-45
2023/05/12 00:31:20;;;;;;;55.40;38.70;;;11.80;95.90;;;;;;5092380;28;20039;-46
2023/05/12 00:33:50;;;;;;;57.03;39.47;;;11.80;95.90;;;;;;5074716;28;20342;-47
2023/05/12 00:36:17;;;;;;;59.95;39.53;;;11.70;95.90;;;;;;5078701;28;20024;-46
2023/05/12 00:38:44;;;;;;;64.15;42.80;;;11.70;95.80;;;;;;5038124;28;20593;-46
2023/05/12 00:41:14;;;;;;;74.32;43.55;;;11.60;95.80;;;;;;5072599;28;20035;-46
2023/05/12 00:43:41;;;;;;;58.80;40.33;;;11.60;95.80;;;;;;5086408;28;20028;-45
2023/05/12 00:46:08;;;;;;;58.15;39.05;;;11.50;95.70;;;;;;5092985;28;20027;-46
2023/05/12 00:48:35;;;;;;;54.70;39.30;;;11.50;95.70;;;;;;5083573;28;20061;-47
2023/05/12 00:51:05;;;;;;;59.90;41.08;;;11.40;95.70;;;;;;5056140;28;20457;-45
2023/05/12 00:53:32;;;;;;;69.70;46.28;;;11.40;95.70;;;;;;5077502;28;20606;-45
2023/05/12 00:56:00;;;;;;;66.82;47.38;;;11.40;95.70;;;;;;5090915;28;20061;-46
2023/05/12 00:58:27;;;;;;;70.30;46.70;;;11.30;95.80;;;;;;5090905;28;20040;-46
2023/05/12 01:00:55;;;;;;;77.03;50.97;;;11.40;95.80;;;;;;5059813;28;20028;-46
2023/05/12 01:03:23;;;;;;;69.32;49.03;;;11.40;95.80;;;;;;5088274;28;20437;-47
2023/05/12 01:06:00;;;;;;;67.72;48.83;;;11.40;95.80;;;;;;5087567;28;20577;-46
2023/05/12 01:08:31;;;;;;;82.40;53.40;;;11.40;95.90;;;;;;5074740;28;20049;-46
2023/05/12 01:10:57;;;;;;;75.10;51.80;;;11.40;95.80;;;;;;5073504;28;20064;-47
2023/05/12 01:13:25;;;;;;;81.95;53.33;;;11.40;95.90;;;;;;5065038;28;20059;-46
2023/05/12 01:15:57;;;;;;;87.20;54.72;;;11.40;95.90;;;;;;5054154;28;20040;-46
2023/05/12 01:18:27;;;;;;;69.68;48.40;;;11.40;95.90;;;;;;5091775;28;20032;-46
2023/05/12 01:21:06;;;;;;;75.70;52.08;;;11.40;95.90;;;;;;5060215;28;20020;-45
2023/05/12 01:23:50;;;;;;;71.43;50.78;;;11.40;95.90;;;;;;5093021;28;20341;-47
2023/05/12 01:26:16;;;;;;;74.93;51.28;;;11.40;95.90;;;;;;5043918;28;20513;-46
2023/05/12 01:28:48;;;;;;;73.90;51.78;;;11.40;95.90;;;;;;5094720;28;20048;-46
2023/05/12 01:31:16;;;;;;;71.15;51.40;;;11.50;95.90;;;;;;5085796;28;20032;-45
2023/05/12 01:33:43;;;;;;;73.63;53.58;;;11.50;95.90;;;;;;5093607;28;20115;-48
2023/05/12 01:36:09;;;;;;;71.13;51.20;;;11.50;95.90;;;;;;5077017;28;20107;-46
2023/05/12 01:38:36;;;;;;;73.45;53.03;;;11.50;96.00;;;;;;5067223;28;20438;-47
2023/05/12 01:41:03;;;;;;;77.35;51.60;;;11.60;96.00;;;;;;5055135;28;20076;-46
2023/05/12 01:43:30;;;;;;;73.78;54.67;;;11.60;95.90;;;;;;5094165;28;20020;-46
2023/05/12 01:45:57;;;;;;;70.55;50.28;;;11.60;95.90;;;;;;5089872;28;20391;-47
2023/05/12 01:48:24;;;;;;;72.75;53.45;;;11.50;95.90;;;;;;5087763;28;20031;-46
2023/05/12 01:50:52;;;;;;;69.68;51.03;;;11.50;95.80;;;;;;5078605;28;20028;-45
2023/05/12 01:53:19;;;;;;;69.03;50.50;;;11.50;95.80;;;;;;5083134;28;20472;-46
2023/05/12 01:55:51;;;;;;;74.93;54.13;;;11.40;95.80;;;;;;5076277;28;20028;-47
2023/05/12 01:58:19;;;;;;;74.32;52.10;;;11.40;95.80;;;;;;5073483;28;20602;-46
2023/05/12 02:00:45;;;;;;;77.00;54.00;;;11.40;95.90;;;;;;5090134;28;20467;-46
2023/05/12 02:03:12;;;;;;;76.38;56.78;;;11.40;95.90;;;;;;5066753;28;20017;-47
2023/05/12 02:05:41;;;;;;;78.10;55.28;;;11.40;95.90;;;;;;5053623;28;20040;-46
2023/05/12 02:08:06;;;;;;;75.37;53.80;;;11.40;95.90;;;;;;5086202;28;20031;-47
2023/05/12 02:10:33;;;;;;;77.45;53.78;;;11.40;95.90;;;;;;5091746;28;20353;-47
2023/05/12 02:12:59;;;;;;;70.90;51.33;;;11.40;95.90;;;;;;5091157;28;20032;-46
2023/05/12 02:15:25;;;;;;;77.18;53.50;;;11.40;95.90;;;;;;5088002;28;20082;-46
2023/05/12 02:17:57;;;;;;;77.10;54.22;;;11.40;95.90;;;;;;5080689;28;20412;-46
2023/05/12 02:20:24;;;;;;;83.00;57.25;;;11.40;95.90;;;;;;5080517;28;20342;-45
2023/05/12 02:22:51;;;;;;;80.78;54.55;;;11.50;95.90;;;;;;5052397;28;20036;-46
2023/05/12 02:25:17;;;;;;;89.63;58.42;;;11.50;96.00;;;;;;5053382;28;20116;-45
2023/05/12 02:27:44;;;;;;;84.13;55.30;;;11.50;96.00;;;;;;5083601;28;20100;-46
2023/05/12 02:30:11;;;;;;;84.00;55.45;;;11.60;96.00;;;;;;5085216;28;20039;-47
2023/05/12 02:32:40;;;;;;;79.38;55.33;;;11.60;96.00;;;;;;5069748;28;20066;-47
2023/05/12 02:35:07;;;;;;;78.38;52.58;;;11.60;96.00;;;;;;5092961;28;20028;-47
2023/05/12 02:37:35;;;;;;;75.57;54.33;;;11.60;96.00;;;;;;5093608;28;20039;-46
2023/05/12 02:40:00;;;;;;;78.15;53.05;;;11.70;96.00;;;;;;5083130;28;20465;-46
2023/05/12 02:42:34;;;;;;;76.25;53.97;;;11.70;96.00;;;;;;5069713;28;20028;-46
2023/05/12 02:45:01;;;;;;;71.70;51.70;;;11.70;95.90;;;;;;5052880;28;20036;-46
2023/05/12 02:47:30;;;;;;;76.57;56.58;;;11.70;96.00;;;;;;5090591;28;20032;-45
2023/05/12 02:49:56;;;;;;;69.35;50.67;;;11.70;96.00;;;;;;5092693;28;20043;-45
2023/05/12 02:52:23;;;;;;;76.47;51.55;;;11.70;96.00;;;;;;5055979;28;20032;-46
2023/05/12 02:54:50;;;;;;;76.13;52.00;;;11.70;96.00;;;;;;5035586;28;20025;-45
2023/05/12 02:57:19;;;;;;;87.72;56.50;;;11.80;96.00;;;;;;5061986;28;20047;-47
2023/05/12 02:59:45;;;;;;;88.03;59.40;;;11.80;96.00;;;;;;5092606;28;20089;-46
2023/05/12 03:02:12;;;;;;;87.13;61.72;;;11.80;96.00;;;;;;5086818;28;20032;-45
2023/05/12 03:04:39;;;;;;;79.38;56.03;;;11.80;96.00;;;;;;5087765;28;20036;-46
2023/05/12 03:07:07;;;;;;;79.55;55.45;;;11.90;96.00;;;;;;5092872;28;20126;-45
2023/05/12 03:09:33;;;;;;;80.35;57.35;;;11.90;96.00;;;;;;5062969;28;20580;-46
2023/05/12 03:11:59;;;;;;;78.00;54.20;;;11.90;96.00;;;;;;5060695;28;20142;-49
2023/05/12 03:14:27;;;;;;;77.70;54.83;;;11.90;96.10;;;;;;5092850;28;20775;-45
2023/05/12 03:16:55;;;;;;;78.30;58.92;;;11.90;96.00;;;;;;5075401;28;20036;-46
2023/05/12 03:19:30;;;;;;;83.38;59.50;;;11.90;96.00;;;;;;5034533;28;20118;-45
2023/05/12 03:21:55;;;;;;;81.05;58.10;;;11.90;96.00;;;;;;5063359;28;20020;-45
2023/05/12 03:24:26;;;;;;;75.30;57.00;;;11.90;96.00;;;;;;5092654;28;20077;-45
2023/05/12 03:26:54;;;;;;;77.45;55.40;;;11.90;96.00;;;;;;5075434;28;20396;-46
2023/05/12 03:29:21;;;;;;;72.60;53.53;;;11.90;96.00;;;;;;5072535;28;20510;-46
2023/05/12 03:31:48;;;;;;;80.70;57.78;;;11.90;96.00;;;;;;5064024;28;20045;-45
2023/05/12 03:34:16;;;;;;;67.38;52.35;;;11.90;96.00;;;;;;5083183;28;20031;-47
2023/05/12 03:36:43;;;;;;;76.25;53.95;;;11.90;96.00;;;;;;5052161;28;20064;-45
2023/05/12 03:39:11;;;;;;;72.43;54.38;;;11.90;96.00;;;;;;5052235;28;20025;-45
2023/05/12 03:41:38;;;;;;;74.55;55.72;;;11.90;96.00;;;;;;5045269;28;20122;-45
2023/05/12 03:44:07;;;;;;;75.38;54.50;;;11.90;96.00;;;;;;5090064;28;20028;-45
2023/05/12 03:46:34;;;;;;;75.60;54.03;;;11.90;96.00;;;;;;5049306;28;20070;-45
2023/05/12 03:49:01;;;;;;;76.50;55.03;;;11.90;96.00;;;;;;5092455;28;20098;-45
2023/05/12 03:51:29;;;;;;;80.13;56.47;;;11.90;96.00;;;;;;5064324;28;20468;-46
2023/05/12 03:53:56;;;;;;;72.28;54.45;;;11.90;96.00;;;;;;5051949;28;20389;-47
2023/05/12 03:56:23;;;;;;;89.03;62.45;;;11.90;96.00;;;;;;5090729;28;20469;-45
2023/05/12 03:58:49;;;;;;;79.88;60.67;;;12.00;96.00;;;;;;5088673;28;20119;-45
2023/05/12 04:01:19;;;;;;;74.47;56.72;;;12.00;96.00;;;;;;5064066;28;20104;-46
2023/05/12 04:03:47;;;;;;;70.05;53.75;;;12.00;96.00;;;;;;5088407;28;20032;-45
2023/05/12 04:06:15;;;;;;;75.55;59.20;;;12.00;96.00;;;;;;5093815;28;20119;-46
2023/05/12 04:08:42;;;;;;;78.50;59.72;;;12.00;96.00;;;;;;5056050;28;20056;-45
2023/05/12 04:11:08;;;;;;;72.15;53.78;;;12.00;96.00;;;;;;5054576;28;20510;-45
2023/05/12 04:13:35;;;;;;;73.13;55.03;;;12.10;96.10;;;;;;5085826;28;20039;-46
2023/05/12 04:16:04;;;;;;;84.20;62.03;;;12.10;96.00;;;;;;5091507;28;20030;-46
2023/05/12 04:18:30;;;;;;;78.55;58.45;;;12.10;96.00;;;;;;5095865;28;20036;-44
2023/05/12 04:20:57;;;;;;;76.63;56.20;;;12.10;96.00;;;;;;5087890;28;20121;-47
2023/05/12 04:23:26;;;;;;;80.05;58.85;;;12.10;96.00;;;;;;5076813;28;20036;-45
2023/05/12 04:25:53;;;;;;;81.65;57.60;;;12.10;96.00;;;;;;5088112;28;20032;-45
2023/05/12 04:28:20;;;;;;;86.13;60.03;;;12.10;96.00;;;;;;5095753;28;20123;-44
2023/05/12 04:30:49;;;;;;;76.68;57.15;;;12.10;96.00;;;;;;5091032;28;20106;-45
2023/05/12 04:33:16;;;;;;;77.78;59.08;;;12.10;96.00;;;;;;5095144;28;20122;-47
2023/05/12 04:35:44;;;;;;;67.10;55.13;;;12.10;96.00;;;;;;5062242;28;20052;-44
2023/05/12 04:38:13;;;;;;;73.88;57.55;;;12.20;96.00;;;;;;5055524;28;20029;-45
2023/05/12 04:40:41;;;;;;;;;;;12.10;96.00;;;;;;5052166;28;20051;-46
2023/05/12 04:43:11;;;;;;;61.30;50.63;;;12.20;96.00;;;;;;5087695;28;19974;-45
2023/05/12 04:45:37;;;;;;;57.65;49.13;;;12.20;96.00;;;;;;5083635;28;20461;-47
2023/05/12 04:48:04;;;;;;;65.93;50.65;;;12.20;96.00;;;;;;5082995;28;20036;-46
2023/05/12 04:50:33;;;;;;;59.45;49.38;;;12.20;96.00;;;;;;5041628;28;20033;-44
2023/05/12 04:53:02;;;;;;;57.65;45.83;;;12.20;96.00;;;;;;5074931;28;20056;-46
2023/05/12 04:55:30;;;;;;;56.70;44.97;;;12.20;95.90;;;;;;5067419;28;20085;-45
2023/05/12 04:57:56;;;;;;;57.42;48.13;;;12.20;96.00;;;;;;5059493;28;20036;-45
2023/05/12 05:00:22;;;;;;;59.97;48.95;;;12.30;95.90;;;;;;5056833;28;20152;-45
2023/05/12 05:02:49;;;;;;;57.30;48.50;;;12.30;95.90;;;;;;5064530;28;20039;-45
2023/05/12 05:05:16;;;;;;;58.10;47.45;;;12.30;95.90;;;;;;5084313;28;20173;-45
2023/05/12 05:07:42;;;;;;;53.75;46.88;;;12.30;95.90;;;;;;5057611;28;20048;-46
2023/05/12 05:10:09;;;;;;;55.60;45.67;;;12.30;95.90;;;;;;5061002;28;20037;-45
2023/05/12 05:12:36;;;;;;;53.58;45.97;;;12.40;95.90;;;;;;5060596;28;20047;-45
2023/05/12 05:15:06;;;;;;;52.25;44.10;;;12.30;95.90;;;;;;5073268;28;20037;-46
2023/05/12 05:17:34;;;;;;;45.78;40.65;;;12.40;95.80;;;;;;5093003;28;20039;-45
2023/05/12 05:20:06;;;;;;;41.33;36.83;;;12.40;95.90;;;;;;5092507;28;20043;-44
2023/05/12 05:22:33;;;;;;;47.40;40.95;;;12.40;95.90;;;;;;5088572;28;20093;-45
2023/05/12 05:25:00;;;;;;;45.15;40.20;;;12.50;95.80;;;;;;5081499;28;20064;-45
2023/05/12 05:27:26;;;;;;;45.90;40.72;;;12.50;95.80;;;;;;5053323;28;20037;-46
2023/05/12 05:29:53;;;;;;;44.78;39.92;;;12.50;95.80;;;;;;5054422;28;20061;-44
2023/05/12 05:32:20;;;;;;;39.35;35.25;;;12.60;95.80;;;;;;5071928;28;20066;-45
2023/05/12 05:34:47;;;;;;;43.28;38.50;;;12.60;95.80;;;;;;5036871;28;20481;-45
2023/05/12 05:37:27;;;;;;;56.88;51.13;;;12.60;95.80;;;;;;5054355;28;20061;-45
2023/05/12 05:39:53;;;;;;;58.25;52.05;;;12.60;95.70;;;;;;5072293;28;20025;-45
2023/05/12 05:42:22;;;;;;;47.40;42.50;;;12.70;95.70;;;;;;5091735;28;20048;-45
2023/05/12 05:44:48;;;;;;;40.53;36.33;;;12.70;95.70;;;;;;5090385;28;20061;-49
2023/05/12 05:47:15;;;;;;;40.65;36.25;;;12.70;95.70;;;;;;5073099;28;20023;-44
2023/05/12 05:49:41;;;;;;;42.65;36.90;;;12.80;95.70;;;;;;5054996;28;20048;-46
2023/05/12 05:52:08;;;;;;;42.40;37.97;;;12.80;95.70;;;;;;5083537;28;20036;-45
2023/05/12 05:54:35;;;;;;;37.00;33.10;;;12.80;95.50;;;;;;5072916;28;20085;-45
2023/05/12 05:57:01;;;;;;;34.08;30.52;;;12.90;95.70;;;;;;5069992;28;21089;-45
2023/05/12 05:59:32;;;;;;;41.33;37.20;;;12.90;95.60;;;;;;5071214;28;20040;-44
2023/05/12 06:02:00;;;;;;;37.60;33.28;;;12.90;95.50;;;;;;5071374;28;20028;-45
2023/05/12 06:04:27;;;;;;;32.78;29.60;;;13.00;95.60;;;;;;5073957;28;20029;-44
2023/05/12 06:06:54;;;;;;;35.53;31.83;;;12.90;95.50;;;;;;5073055;28;20024;-47
2023/05/12 06:09:23;;;;;;;33.95;30.52;;;13.00;95.50;;;;;;5081012;28;20070;-43
2023/05/12 06:11:52;;;;;;;36.70;33.15;;;13.00;95.30;;;;;;5071901;28;20401;-44
2023/05/12 06:14:19;;;;;;;33.05;29.17;;;13.00;95.30;;;;;;5067406;28;20454;-44
2023/05/12 06:16:46;;;;;;;34.40;30.92;;;13.10;95.40;;;;;;5070656;28;20099;-43
2023/05/12 06:19:14;;;;;;;40.67;36.20;;;13.10;95.30;;;;;;5072075;28;20056;-44
2023/05/12 06:21:42;;;;;;;34.97;31.23;;;13.10;95.20;;;;;;5070331;28;20028;-44
2023/05/12 06:24:11;;;;;;;37.97;31.13;;;13.20;95.30;;;;;;5056605;28;20091;-44
2023/05/12 06:26:38;;;;;;;30.03;27.07;;;13.20;95.20;;;;;;5072997;28;20024;-45
2023/05/12 06:29:07;;;;;;;33.50;30.10;;;13.30;95.20;;;;;;5082237;28;20039;-43
2023/05/12 06:31:33;;;;;;;32.35;29.13;;;13.40;95.20;;;;;;5047256;28;20490;-44
2023/05/12 06:34:01;;;;;;;34.45;29.38;;;13.40;95.10;;;;;;5055885;28;20037;-44
2023/05/12 06:36:30;;;;;;;32.90;29.40;;;13.50;95.10;;;;;;5041903;28;20032;-45
2023/05/12 06:38:58;;;;;;;29.13;26.33;;;13.60;95.10;;;;;;5070214;28;20063;-45
2023/05/12 06:41:25;;;;;;;27.65;24.85;;;13.70;95.00;;;;;;5069929;28;20020;-44
2023/05/12 06:43:52;;;;;;;32.53;29.27;;;13.70;94.90;;;;;;5066181;28;20124;-46
2023/05/12 06:46:20;;;;;;;27.42;24.92;;;13.80;94.90;;;;;;5068652;28;20100;-44
2023/05/12 06:48:47;;;;;;;30.65;27.45;;;13.90;94.70;;;;;;5054739;28;20025;-43
2023/05/12 06:51:16;;;;;;;29.88;27.08;;;13.90;94.60;;;;;;5066685;28;20047;-44
2023/05/12 06:53:43;;;;;;;27.38;24.65;;;14.10;94.50;;;;;;5072895;28;20043;-47
2023/05/12 06:56:15;;;;;;;25.13;22.83;;;14.10;94.60;;;;;;5072213;28;20346;-43
2023/05/12 06:58:42;;;;;;;27.80;24.88;;;14.30;94.40;;;;;;5067453;28;20089;-43
2023/05/12 07:01:09;;;;;;;25.83;23.50;;;14.20;93.70;;;;;;5071067;28;20127;-44
2023/05/12 07:03:35;;;;;;;25.73;23.10;;;14.30;93.80;;;;;;5057551;28;20043;-45
2023/05/12 07:06:02;;;;;;;24.05;21.70;;;14.30;93.60;;;;;;5068895;28;20036;-44
2023/05/12 07:08:35;;;;;;;25.90;23.42;;;14.40;93.50;;;;;;5071060;28;20028;-43
2023/05/12 07:11:04;;;;;;;22.13;20.13;;;14.40;92.80;;;;;;5065482;28;20408;-46
2023/05/12 07:13:31;;;;;;;21.80;19.80;;;14.60;93.00;;;;;;5072257;28;20064;-43
2023/05/12 07:15:59;;;;;;;21.73;19.65;;;14.80;92.90;;;;;;5049841;28;20629;-43
2023/05/12 07:18:25;;;;;;;21.48;19.48;;;14.90;92.40;;;;;;5066612;28;20500;-44
2023/05/12 07:20:52;;;;;;;20.48;18.58;;;14.90;91.70;;;;;;5071703;28;20038;-43
2023/05/12 07:23:19;;;;;;;18.80;17.10;;;15.20;91.60;;;;;;5082286;28;20031;-43
2023/05/12 07:25:46;;;;;;;17.73;16.20;;;15.30;90.90;;;;;;5053370;28;20028;-43
2023/05/12 07:28:12;;;;;;;18.77;17.02;;;15.40;90.50;;;;;;5068362;28;20063;-44
2023/05/12 07:30:38;;;;;;;16.67;15.07;;;15.50;90.00;;;;;;5068256;28;20056;-44
2023/05/12 07:33:05;;;;;;;17.27;15.80;;;15.50;89.50;;;;;;5073914;28;20024;-43
2023/05/12 07:35:32;;;;;;;15.07;13.65;;;15.60;89.00;;;;;;5068607;28;20035;-46
2023/05/12 07:37:58;;;;;;;15.70;14.30;;;15.80;89.10;;;;;;5054973;28;20031;-43
2023/05/12 07:40:26;;;;;;;14.95;13.55;;;15.80;87.00;;;;;;5056577;28;20073;-44
2023/05/12 07:42:52;;;;;;;16.05;13.73;;;15.90;86.20;;;;;;5073595;28;20025;-44
2023/05/12 07:45:24;;;;;;;13.75;12.38;;;15.90;84.00;;;;;;5070001;28;20036;-43
2023/05/12 07:47:54;;;;;;;14.70;13.40;;;15.90;83.80;;;;;;5071084;28;20109;-45
2023/05/12 07:50:20;;;;;;;;;;;16.10;84.50;;;;;;5072624;28;20046;-43
2023/05/12 07:52:50;;;;;;;13.82;12.20;;;16.20;83.60;;;;;;5064830;28;19916;-43
2023/05/12 07:55:20;;;;;;;;;;;16.20;83.30;;;;;;5056770;28;20039;-45
2023/05/12 07:57:51;;;;;;;10.88;9.77;;;16.30;83.30;;;;;;5078261;28;20217;-44
2023/05/12 08:00:17;;;;;;;10.52;9.52;;;16.40;83.60;;;;;;5040535;28;20037;-45
2023/05/12 08:02:43;;;;;;;12.35;11.05;;;16.60;83.20;;;;;;5077988;28;20036;-44
2023/05/12 08:05:09;;;;;;;11.32;10.30;;;16.80;83.40;;;;;;5054116;28;20025;-44
2023/05/12 08:07:38;;;;;;;10.75;9.38;;;16.90;81.90;;;;;;5066636;28;20070;-45
2023/05/12 08:10:06;;;;;;;12.48;9.38;;;17.10;79.70;;;;;;5057087;28;20096;-44
2023/05/12 08:12:34;;;;;;;15.27;9.93;;;17.50;78.40;;;;;;5039448;28;20099;-44
2023/05/12 08:15:00;;;;;;;9.60;8.60;;;17.90;77.90;;;;;;5059817;28;20032;-45
2023/05/12 08:17:27;;;;;;;10.07;7.43;;;18.20;76.30;;;;;;5058450;28;20524;-45
2023/05/12 08:19:55;;;;;;;8.02;7.00;;;18.20;72.80;;;;;;5050729;28;20061;-46
2023/05/12 08:22:22;;;;;;;9.77;7.47;;;18.30;73.60;;;;;;5073600;28;20654;-43
2023/05/12 08:24:51;;;;;;;9.43;8.00;;;18.40;73.60;;;;;;5060423;28;20053;-43
2023/05/12 08:27:19;;;;;;;8.80;7.90;;;18.40;74.00;;;;;;5067822;28;20036;-43
2023/05/12 08:29:46;;;;;;;8.65;6.45;;;18.70;74.60;;;;;;5068993;28;20441;-42
2023/05/12 08:32:11;;;;;;;10.15;6.35;;;18.90;73.60;;;;;;5052428;28;20059;-44
2023/05/12 08:34:37;;;;;;;7.70;6.78;;;19.00;72.60;;;;;;5053309;28;20056;-45
2023/05/12 08:37:06;;;;;;;8.38;7.00;;;19.00;69.90;;;;;;5070541;28;20033;-47
2023/05/12 08:39:35;;;;;;;6.82;6.05;;;19.00;68.30;;;;;;5060457;28;20481;-47
2023/05/12 08:42:20;;;;;;;7.63;6.23;;;19.10;67.30;;;;;;5056448;28;20454;-45
2023/05/12 08:44:46;;;;;;;7.75;6.07;;;19.30;67.80;;;;;;5074753;28;20262;-46
2023/05/12 08:47:14;;;;;;;7.38;5.95;;;20.00;66.50;;;;;;5065800;28;20925;-46
2023/05/12 08:49:42;;;;;;;12.38;5.50;;;21.00;68.30;;;;;;5039221;28;20032;-46
2023/05/12 08:52:13;;;;;;;5.93;5.30;;;21.60;61.80;;;;;;5072568;28;20432;-45
2023/05/12 08:54:39;;;;;;;6.03;4.70;;;22.00;59.20;;;;;;5054937;28;20078;-43
2023/05/12 08:57:08;;;;;;;7.82;5.07;;;22.60;58.50;;;;;;5058776;28;20016;-44
2023/05/12 08:59:42;;;;;;;5.90;4.55;;;23.00;55.10;;;;;;5057900;28;20043;-48
2023/05/12 09:02:09;;;;;;;7.05;5.07;;;23.00;54.90;;;;;;5065248;28;20028;-45
2023/05/12 09:04:41;;;;;;;8.23;4.78;;;23.00;54.30;;;;;;5074249;28;20082;-46
2023/05/12 09:07:11;;;;;;;7.68;4.97;;;22.90;54.60;;;;;;5056483;28;20115;-44
2023/05/12 09:09:42;;;;;;;10.40;6.50;;;23.20;57.10;;;;;;5070453;28;20047;-44
2023/05/12 09:12:14;;;;;;;7.43;6.07;;;23.10;60.00;;;;;;5072651;28;20071;-44
2023/05/12 09:14:43;;;;;;;8.18;6.18;;;22.80;57.00;;;;;;5049957;28;20162;-43
2023/05/12 09:17:11;;;;;;;6.95;5.15;;;22.40;60.40;;;;;;5035604;28;20033;-46
2023/05/12 09:19:38;;;;;;;8.65;5.97;;;22.10;61.40;;;;;;5062332;28;20112;-43
2023/05/12 09:22:05;;;;;;;7.63;5.35;;;22.10;60.90;;;;;;5064486;28;20082;-43
2023/05/12 09:24:38;;;;;;;6.20;5.15;;;22.00;62.90;;;;;;5073802;28;20025;-46
2023/05/12 09:27:05;;;;;;;7.05;6.05;;;21.90;63.60;;;;;;5063205;28;20045;-44
2023/05/12 09:29:35;;;;;;;9.77;6.38;;;21.90;62.70;;;;;;5043718;28;20904;-47
2023/05/12 09:32:05;;;;;;;8.10;6.80;;;21.60;62.70;;;;;;5066141;28;20357;-45
2023/05/12 09:34:37;;;;;;;9.50;6.93;;;21.40;63.60;;;;;;5056870;28;20028;-44
2023/05/12 09:37:08;;;;;;;8.55;6.35;;;21.40;64.20;;;;;;5068145;28;20518;-46
2023/05/12 09:39:35;;;;;;;7.20;5.78;;;21.50;65.50;;;;;;5073794;28;20031;-46
2023/05/12 09:42:02;;;;;;;8.15;7.13;;;21.20;65.40;;;;;;5053946;28;20025;-43
2023/05/12 09:44:32;;;;;;;8.07;7.30;;;21.10;63.90;;;;;;5068253;28;20024;-45
2023/05/12 09:47:10;;;;;;;7.90;7.13;;;21.00;66.20;;;;;;5042960;28;20029;-44
2023/05/12 09:49:44;;;;;;;8.80;7.87;;;20.90;64.80;;;;;;5064746;28;20430;-46
2023/05/12 09:52:19;;;;;;;8.80;7.53;;;20.90;67.60;;;;;;5054756;28;20521;-45
2023/05/12 09:54:47;;;;;;;11.27;8.00;;;20.90;64.80;;;;;;5049562;28;20037;-46
2023/05/12 09:57:16;;;;;;;8.57;7.78;;;20.90;66.30;;;;;;5048868;28;20036;-43
2023/05/12 09:59:43;;;;;;;9.20;8.20;;;20.90;67.90;;;;;;5042473;28;20041;-45
2023/05/12 10:02:15;;;;;;;8.70;7.72;;;21.10;67.30;;;;;;5049013;28;20040;-44
2023/05/12 10:04:59;;;;;;;8.38;7.53;;;21.40;67.40;;;;;;5030547;28;20025;-45
2023/05/12 10:07:28;;;;;;;8.98;8.10;;;21.80;66.60;;;;;;5063895;28;20033;-44
2023/05/12 10:09:58;;;;;;;;;;;22.00;63.50;;;;;;5068871;28;20036;-44
2023/05/12 10:12:34;;;;;;;;;;;22.00;64.70;;;;;;5067179;28;19946;-45
2023/05/12 10:15:05;;;;;;;11.02;8.48;;;22.10;64.10;;;;;;5067052;28;20289;-44
2023/05/12 10:17:33;;;;;;;10.95;8.40;;;22.10;64.00;;;;;;5070538;28;20381;-48
2023/05/12 10:20:05;;;;;;;7.28;6.57;;;22.20;64.20;;;;;;5064311;28;20041;-44
2023/05/12 10:22:34;;;;;;;11.15;7.90;;;22.60;64.90;;;;;;5071695;28;20475;-47
2023/05/12 10:25:01;;;;;;;9.48;8.63;;;22.90;63.20;;;;;;5051675;28;20024;-44
2023/05/12 10:27:34;;;;;;;8.75;6.90;;;22.90;61.60;;;;;;5050120;28;20032;-46
2023/05/12 10:30:05;;;;;;;10.38;8.68;;;22.60;64.30;;;;;;5071045;28;20371;-45
2023/05/12 10:32:32;;;;;;;8.45;7.60;;;22.40;65.30;;;;;;5051605;28;20041;-44
2023/05/12 10:35:11;;;;;;;8.38;7.55;;;22.30;68.00;;;;;;5052096;28;20028;-46
2023/05/12 10:37:41;;;;;;;9.15;8.20;;;22.70;65.60;;;;;;5068160;28;20606;-45
2023/05/12 10:40:09;;;;;;;8.82;7.97;;;22.90;63.20;;;;;;5040175;28;20036;-46
2023/05/12 10:42:38;;;;;;;8.57;7.68;;;22.80;64.50;;;;;;5076791;28;20044;-44
2023/05/12 10:45:25;;;;;;;8.32;7.43;;;22.90;63.40;;;;;;5055331;28;20032;-44
2023/05/12 10:48:03;;;;;;;9.95;8.45;;;22.90;63.50;;;;;;5065805;28;20029;-45
2023/05/12 10:50:32;;;;;;;9.13;7.05;;;23.10;65.80;;;;;;5063241;28;20028;-47
2023/05/12 10:53:00;;;;;;;8.40;7.55;;;23.40;63.70;;;;;;5077460;28;20043;-46
2023/05/12 10:55:40;;;;;;;9.60;8.60;;;23.40;61.70;;;;;;5063073;28;20040;-45
2023/05/12 10:58:11;;;;;;;8.95;7.95;;;23.30;62.40;;;;;;5058534;28;20036;-44
2023/05/12 11:00:48;;;;;;;10.88;8.57;;;23.10;62.80;;;;;;5068579;28;20032;-46
2023/05/12 11:03:23;;;;;;;8.90;8.10;;;23.10;62.80;;;;;;5037933;28;20030;-49
2023/05/12 11:06:05;;;;;;;10.13;8.30;;;23.10;64.30;;;;;;5039888;28;20028;-44
2023/05/12 11:08:33;;;;;;;11.27;8.02;;;23.20;62.80;;;;;;5069551;28;20060;-47
2023/05/12 11:11:01;;;;;;;9.65;8.25;;;23.10;62.80;;;;;;5068376;28;20037;-46
2023/05/12 11:13:27;;;;;;;10.88;8.75;;;23.40;64.50;;;;;;5058283;28;20025;-44
2023/05/12 11:15:56;;;;;;;8.07;7.28;;;23.20;61.10;;;;;;5069648;28;20857;-45
2023/05/12 11:18:24;;;;;;;10.38;8.70;;;23.20;62.80;;;;;;5029281;28;20037;-43
2023/05/12 11:20:51;;;;;;;7.93;7.18;;;23.00;61.80;;;;;;5071165;28;20021;-45
2023/05/12 11:23:28;;;;;;;7.50;6.72;;;23.10;66.50;;;;;;5065661;28;20442;-44
2023/05/12 11:25:57;;;;;;;7.47;6.53;;;23.20;62.70;;;;;;5068614;28;20466;-46
2023/05/12 11:28:23;;;;;;;8.70;5.88;;;23.30;61.90;;;;;;5062808;28;20493;-44
2023/05/12 11:30:51;;;;;;;9.30;5.72;;;23.30;60.60;;;;;;5081172;28;20036;-43
2023/05/12 11:33:21;;;;;;;8.60;5.97;;;23.20;57.00;;;;;;5073369;28;20078;-44
2023/05/12 11:35:52;;;;;;;8.75;5.60;;;23.00;57.90;;;;;;5069634;28;20497;-44
2023/05/12 11:38:20;;;;;;;11.18;6.13;;;23.00;60.50;;;;;;5078590;28;20096;-44
2023/05/12 11:40:47;;;;;;;6.93;6.25;;;23.00;60.90;;;;;;5081813;28;20528;-44
2023/05/12 11:43:19;;;;;;;6.45;5.82;;;22.90;60.10;;;;;;5063209;28;20075;-46
2023/05/12 11:45:45;;;;;;;9.63;6.72;;;22.90;61.60;;;;;;5044578;28;20021;-45
2023/05/12 11:48:13;;;;;;;7.07;5.97;;;23.00;62.80;;;;;;5050001;28;20032;-46
2023/05/12 11:50:41;;;;;;;8.88;6.18;;;23.30;61.90;;;;;;5054951;28;20107;-44
2023/05/12 11:53:13;;;;;;;7.20;5.60;;;23.10;57.40;;;;;;5048411;28;20346;-44
2023/05/12 11:56:00;;;;;;;10.02;6.63;;;23.10;59.30;;;;;;5069913;28;20040;-46
2023/05/12 11:58:29;;;;;;;8.35;5.32;;;22.90;58.10;;;;;;5057490;28;20490;-44
2023/05/12 12:00:56;;;;;;;7.60;5.43;;;22.90;59.40;;;;;;5066947;28;20021;-45
2023/05/12 12:03:23;;;;;;;7.30;5.45;;;23.10;59.10;;;;;;5062621;28;20039;-47
2023/05/12 12:06:00;;;;;;;8.48;6.43;;;23.10;60.40;;;;;;5054800;28;20025;-49
2023/05/12 12:08:28;;;;;;;6.20;5.47;;;22.90;61.50;;;;;;5047799;28;20036;-47
2023/05/12 12:10:57;;;;;;;12.20;7.10;;;22.80;58.50;;;;;;5064608;28;20497;-45
2023/05/12 12:13:24;;;;;;;7.80;6.20;;;22.80;57.30;;;;;;5044015;28;20077;-45
2023/05/12 12:15:52;;;;;;;10.00;6.65;;;22.80;59.00;;;;;;5050834;28;20087;-45
2023/05/12 12:18:21;;;;;;;6.88;6.18;;;22.80;57.30;;;;;;5070166;28;20028;-47
2023/05/12 12:20:48;;;;;;;7.45;6.75;;;22.90;57.50;;;;;;5065701;28;20041;-45
2023/05/12 12:23:14;;;;;;;8.32;6.85;;;22.80;57.00;;;;;;5039054;28;20032;-45
2023/05/12 12:25:39;;;;;;;7.72;6.95;;;22.90;58.50;;;;;;5072832;28;20035;-45
2023/05/12 12:28:07;;;;;;;7.50;6.63;;;22.90;58.40;;;;;;5075586;28;20352;-48
2023/05/12 12:30:35;;;;;;;10.40;6.05;;;23.00;60.60;;;;;;5071782;28;20227;-45
2023/05/12 12:33:02;;;;;;;9.40;6.72;;;22.90;59.50;;;;;;5072351;28;20457;-46
2023/05/12 12:35:30;;;;;;;7.15;6.45;;;22.90;59.30;;;;;;5072578;28;20064;-47
2023/05/12 12:37:59;;;;;;;14.25;7.40;;;22.90;61.80;;;;;;5076195;28;20108;-45
2023/05/12 12:40:26;;;;;;;7.53;6.82;;;23.00;59.90;;;;;;5070130;28;20450;-46
2023/05/12 12:42:53;;;;;;;6.82;5.75;;;22.90;57.90;;;;;;5062404;28;20353;-46